createdAt,value
2022-08-31T00:04:42.727Z,13.95
2022-08-31T00:09:46.295Z,13.95
2022-08-31T00:14:50.117Z,13.85
2022-08-31T00:19:53.942Z,13.76
2022-08-31T00:24:57.251Z,13.67
2022-08-31T00:30:00.670Z,13.64
2022-08-31T00:35:05.249Z,13.57
2022-08-31T00:40:09.565Z,13.55
2022-08-31T00:45:13.669Z,13.53
2022-08-31T00:50:18.492Z,13.51
2022-08-31T00:55:29.977Z,13.53
2022-08-31T01:00:33.534Z,13.48
2022-08-31T01:05:38.744Z,13.43
2022-08-31T01:10:44.217Z,13.36
2022-08-31T01:15:57.936Z,13.33
2022-08-31T01:21:09.508Z,13.29
2022-08-31T01:26:18.452Z,13.26
2022-08-31T01:31:33.430Z,13.21
2022-08-31T01:36:40.433Z,13.18
2022-08-31T01:41:44.565Z,13.15
2022-08-31T01:46:48.262Z,13.15
2022-08-31T01:51:53.499Z,13.11
2022-08-31T01:56:57.365Z,13.05
2022-08-31T02:02:00.824Z,13.02
2022-08-31T02:07:04.498Z,12.96
2022-08-31T02:12:07.912Z,12.90
2022-08-31T02:17:16.447Z,12.94
2022-08-31T02:22:19.860Z,12.95
2022-08-31T02:27:23.272Z,12.92
2022-08-31T02:32:26.891Z,12.90
2022-08-31T02:37:30.302Z,12.89
2022-08-31T02:42:53.079Z,12.86
2022-08-31T02:47:57.506Z,12.82
2022-08-31T02:53:00.925Z,12.81
2022-08-31T02:58:05.304Z,12.78
2022-08-31T03:03:08.896Z,12.74
2022-08-31T03:08:12.184Z,12.73
2022-08-31T03:13:15.928Z,12.72
2022-08-31T03:18:19.931Z,12.74
2022-08-31T03:23:23.241Z,12.74
2022-08-31T03:28:26.555Z,12.73
2022-08-31T03:33:29.966Z,12.68
2022-08-31T03:38:34.201Z,12.65
2022-08-31T03:43:37.816Z,12.60
2022-08-31T03:48:41.333Z,12.57
2022-08-31T03:53:44.747Z,12.56
2022-08-31T03:58:48.056Z,12.58
2022-08-31T04:03:51.366Z,12.57
2022-08-31T04:08:57.208Z,12.53
2022-08-31T04:14:01.577Z,12.56
2022-08-31T04:19:08.023Z,12.62
2022-08-31T04:24:12.551Z,12.71
2022-08-31T04:29:16.010Z,12.86
2022-08-31T04:34:19.323Z,12.92
2022-08-31T04:39:24.126Z,13.05
2022-08-31T04:44:29.120Z,13.17
2022-08-31T04:49:32.634Z,13.33
2022-08-31T04:54:36.047Z,13.51
2022-08-31T04:59:39.365Z,13.74
2022-08-31T05:04:43.079Z,13.97
2022-08-31T05:09:46.391Z,14.30
2022-08-31T05:14:49.698Z,14.64
2022-08-31T05:19:53.318Z,14.97
2022-08-31T05:24:56.683Z,15.22
2022-08-31T05:30:00.156Z,15.29
2022-08-31T05:35:03.710Z,15.30
2022-08-31T05:40:08.510Z,15.24
2022-08-31T05:45:12.020Z,15.16
2022-08-31T05:50:15.387Z,15.24
2022-08-31T05:55:20.080Z,15.36
2022-08-31T06:00:25.947Z,15.41
2022-08-31T06:05:31.839Z,15.51
2022-08-31T06:10:35.287Z,15.61
2022-08-31T06:15:39.458Z,15.68
2022-08-31T06:20:45.492Z,15.79
2022-08-31T06:25:48.850Z,15.90
2022-08-31T06:30:55.647Z,16.03
2022-08-31T06:35:59.202Z,16.24
2022-08-31T06:41:03.083Z,16.44
2022-08-31T06:46:06.797Z,16.65
2022-08-31T06:51:12.133Z,16.73
2022-08-31T06:56:21.477Z,16.89
2022-08-31T07:01:35.171Z,17.09
2022-08-31T07:06:42.502Z,17.18
2022-08-31T07:11:49.243Z,17.24
2022-08-31T07:16:55.733Z,17.35
2022-08-31T07:22:01.733Z,17.45
2022-08-31T07:27:13.335Z,17.56
2022-08-31T07:32:17.683Z,17.61
2022-08-31T07:37:39.618Z,17.76
2022-08-31T07:42:45.152Z,17.89
2022-08-31T07:47:50.835Z,17.90
2022-08-31T07:52:55.919Z,17.88
2022-08-31T07:57:59.212Z,18.03
2022-08-31T08:03:07.908Z,18.27
2022-08-31T08:08:13.810Z,18.61
2022-08-31T08:13:20.696Z,19.00
2022-08-31T08:18:24.332Z,19.46
2022-08-31T08:23:28.507Z,19.64
2022-08-31T08:28:40.812Z,19.58
2022-08-31T08:33:46.004Z,19.39
2022-08-31T08:38:51.771Z,19.48
2022-08-31T08:43:57.702Z,19.66
2022-08-31T08:49:10.505Z,19.60
2022-08-31T08:54:19.303Z,19.40
2022-08-31T08:59:22.451Z,19.58
2022-08-31T09:04:58.531Z,19.80
2022-08-31T09:10:14.948Z,20.12
2022-08-31T09:15:37.437Z,20.27
2022-08-31T09:20:41.644Z,20.40
2022-08-31T09:25:53.348Z,20.30
2022-08-31T09:30:56.592Z,19.81
2022-08-31T09:36:33.832Z,19.64
2022-08-31T09:41:37.894Z,19.58
2022-08-31T09:47:01.790Z,19.54
2022-08-31T09:52:47.186Z,19.18
2022-08-31T09:57:54.291Z,18.80
2022-08-31T10:03:09.268Z,18.65
2022-08-31T10:08:31.009Z,18.57
2022-08-31T10:13:42.614Z,18.54
2022-08-31T10:19:06.814Z,18.39
2022-08-31T10:24:26.615Z,18.34
2022-08-31T10:29:52.350Z,18.63
2022-08-31T10:35:19.827Z,18.93
2022-08-31T10:40:35.388Z,19.21
2022-08-31T10:45:42.977Z,19.48
2022-08-31T10:51:11.187Z,19.59
2022-08-31T10:56:24.167Z,19.74
2022-08-31T11:01:45.437Z,20.02
2022-08-31T11:07:04.993Z,20.25
2022-08-31T11:12:18.695Z,20.37
2022-08-31T11:17:36.905Z,20.59
2022-08-31T11:22:44.210Z,21.16
2022-08-31T11:27:51.316Z,21.60
2022-08-31T11:32:57.795Z,21.31
2022-08-31T11:38:00.901Z,21.11
2022-08-31T11:43:05.378Z,20.99
2022-08-31T11:48:49.713Z,21.01
2022-08-31T11:53:53.617Z,21.08
2022-08-31T11:59:32.743Z,20.81
2022-08-31T12:04:43.779Z,20.66
2022-08-31T12:10:14.636Z,20.67
2022-08-31T12:15:39.317Z,20.81
2022-08-31T12:21:21.163Z,21.02
2022-08-31T12:26:45.453Z,21.18
2022-08-31T12:32:10.725Z,21.36
2022-08-31T12:37:23.626Z,21.47
2022-08-31T12:42:27.243Z,21.62
2022-08-31T12:47:41.307Z,21.93
2022-08-31T12:53:00.081Z,22.12
2022-08-31T12:58:05.786Z,22.15
2022-08-31T13:03:29.639Z,22.13
2022-08-31T13:08:40.630Z,21.86
2022-08-31T13:13:44.145Z,21.61
2022-08-31T13:18:48.097Z,21.61
2022-08-31T13:23:51.279Z,21.70
2022-08-31T13:29:00.428Z,21.64
2022-08-31T13:34:07.425Z,21.70
2022-08-31T13:39:26.916Z,21.73
2022-08-31T13:44:32.075Z,21.66
2022-08-31T13:49:38.555Z,21.73
2022-08-31T13:54:42.789Z,22.07
2022-08-31T13:59:47.537Z,22.12
2022-08-31T14:04:59.852Z,21.65
2022-08-31T14:10:21.494Z,21.33
2022-08-31T14:15:35.760Z,21.38
2022-08-31T14:20:53.372Z,22.66
2022-08-31T14:26:13.104Z,26.57
2022-08-31T14:31:31.363Z,30.18
2022-08-31T14:36:43.892Z,32.13
2022-08-31T14:41:47.202Z,31.84
2022-08-31T14:46:50.560Z,34.05
2022-08-31T14:51:54.039Z,36.69
2022-08-31T14:56:58.567Z,39.51
2022-08-31T15:02:02.838Z,41.55
2022-08-31T15:07:09.586Z,42.61
2022-08-31T15:12:14.781Z,42.72
2022-08-31T15:17:20.627Z,43.04
2022-08-31T15:22:26.470Z,45.02
2022-08-31T15:27:31.496Z,45.17
2022-08-31T15:32:43.360Z,44.74
2022-08-31T15:37:59.004Z,44.88
2022-08-31T15:43:03.286Z,43.91
2022-08-31T15:48:25.168Z,43.97
2022-08-31T15:53:30.844Z,42.79
2022-08-31T15:58:39.254Z,42.79
2022-08-31T16:03:54.633Z,42.72
2022-08-31T16:08:58.544Z,43.00
2022-08-31T16:14:03.495Z,43.23
2022-08-31T16:19:08.758Z,42.84
2022-08-31T16:24:18.244Z,41.59
2022-08-31T16:29:24.931Z,39.91
2022-08-31T16:34:29.063Z,39.18
2022-08-31T16:39:32.132Z,38.73
2022-08-31T16:44:36.968Z,38.33
2022-08-31T16:49:43.769Z,37.91
2022-08-31T16:54:49.336Z,36.18
2022-08-31T16:59:53.876Z,34.08
2022-08-31T17:05:00.876Z,32.04
2022-08-31T17:10:07.189Z,30.09
2022-08-31T17:15:13.944Z,26.35
2022-08-31T17:20:17.356Z,23.59
2022-08-31T17:25:20.564Z,22.51
2022-08-31T17:30:23.624Z,21.89
2022-08-31T17:35:28.110Z,20.62
2022-08-31T17:40:31.259Z,19.68
2022-08-31T17:45:37.021Z,18.90
2022-08-31T17:50:46.116Z,18.27
2022-08-31T17:55:57.221Z,17.69
2022-08-31T18:01:01.653Z,17.28
2022-08-31T18:06:05.276Z,16.97
2022-08-31T18:11:11.004Z,16.61
2022-08-31T18:16:14.564Z,16.34
2022-08-31T18:21:22.584Z,16.11
2022-08-31T18:26:31.776Z,15.86
2022-08-31T18:31:38.397Z,15.62
2022-08-31T18:36:44.011Z,15.38
2022-08-31T18:42:06.857Z,15.18
2022-08-31T18:47:12.315Z,15.00
2022-08-31T18:52:23.099Z,14.81
2022-08-31T18:57:28.562Z,14.67
2022-08-31T19:02:33.222Z,14.53
2022-08-31T19:07:36.617Z,14.38
2022-08-31T19:12:42.887Z,14.24
2022-08-31T19:17:49.597Z,14.15
2022-08-31T19:22:53.568Z,14.04
2022-08-31T19:27:56.724Z,13.94
2022-08-31T19:33:01.370Z,13.82
2022-08-31T19:38:05.803Z,13.71
2022-08-31T19:48:32.288Z,13.53
2022-08-31T19:53:35.393Z,13.44
2022-08-31T19:58:47.207Z,13.38
2022-08-31T20:03:51.743Z,13.33
2022-08-31T20:08:55.263Z,13.25
2022-08-31T20:13:59.803Z,13.18
2022-08-31T20:19:05.026Z,13.10
2022-08-31T20:24:11.685Z,13.02
2022-08-31T20:29:18.281Z,12.97
2022-08-31T20:34:23.199Z,12.90
2022-08-31T20:39:29.292Z,12.85
2022-08-31T20:44:35.085Z,12.78
2022-08-31T20:49:42.052Z,12.70
2022-08-31T20:54:45.331Z,12.63
2022-08-31T20:59:51.156Z,12.58
2022-08-31T21:04:54.207Z,12.53
2022-08-31T21:09:59.053Z,12.48
2022-08-31T21:15:02.810Z,12.42
2022-08-31T21:20:07.210Z,12.38
2022-08-31T21:25:13.002Z,12.35
2022-08-31T21:30:16.610Z,12.26
2022-08-31T21:35:20.522Z,12.18
2022-08-31T21:40:23.700Z,12.14
2022-08-31T21:45:27.553Z,12.14
2022-08-31T21:50:30.761Z,12.13
2022-08-31T21:55:38.715Z,12.09
2022-08-31T22:00:42.502Z,12.05
2022-08-31T22:05:45.711Z,12.01
2022-08-31T22:10:49.434Z,11.95
2022-08-31T22:15:52.674Z,11.91
2022-08-31T22:20:55.848Z,11.89
2022-08-31T22:25:59.670Z,11.83
2022-08-31T22:31:03.877Z,11.75
2022-08-31T22:36:30.872Z,11.67
2022-08-31T22:41:36.740Z,11.59
2022-08-31T22:46:40.606Z,11.49
2022-08-31T22:51:48.467Z,11.40
2022-08-31T22:56:52.510Z,11.38
2022-08-31T23:02:02.334Z,11.37
2022-08-31T23:07:05.889Z,11.29
2022-08-31T23:12:11.046Z,11.19
2022-08-31T23:17:17.121Z,11.08
2022-08-31T23:22:22.004Z,11.01
2022-08-31T23:27:28.250Z,10.92
2022-08-31T23:32:34.015Z,10.87
2022-08-31T23:37:38.350Z,10.81
2022-08-31T23:42:42.272Z,10.80
2022-08-31T23:47:46.097Z,10.87
2022-08-31T23:52:52.484Z,10.92
2022-08-31T23:57:57.941Z,10.91
